sensor_id;sensor_type;location;lat;lon;timestamp;P1;durP1;ratioP1;P2;durP2;ratioP2
3696;SDS011;60662;48.810;8.872;2023-06-26T08:01:24;7.00;;;3.72;;
3696;SDS011;60662;48.810;8.872;2023-06-26T08:03:44;8.20;;;4.53;;
3696;SDS011;60662;48.810;8.872;2023-06-26T08:06:02;11.05;;;4.35;;
3696;SDS011;60662;48.810;8.872;2023-06-26T08:08:21;7.80;;;4.47;;
3696;SDS011;60662;48.810;8.872;2023-06-26T08:10:41;5.93;;;4.13;;
3696;SDS011;60662;48.810;8.872;2023-06-26T08:13:06;5.70;;;4.03;;
3696;SDS011;60662;48.810;8.872;2023-06-26T08:15:40;5.50;;;4.40;;
3696;SDS011;60662;48.810;8.872;2023-06-26T08:18:19;4.47;;;3.63;;
3696;SDS011;60662;48.810;8.872;2023-06-26T08:19:20;6.00;;;4.30;;
3696;SDS011;60662;48.810;8.872;2023-06-26T08:21:45;7.20;;;4.13;;
3696;SDS011;60662;48.810;8.872;2023-06-26T08:22:48;4.83;;;3.70;;
3696;SDS011;60662;48.810;8.872;2023-06-26T08:25:26;5.37;;;3.97;;
3696;SDS011;60662;48.810;8.872;2023-06-26T08:26:28;5.87;;;3.90;;
3696;SDS011;60662;48.810;8.872;2023-06-26T08:27:29;7.17;;;3.53;;
3696;SDS011;60662;48.810;8.872;2023-06-26T08:29:15;7.43;;;3.70;;
3696;SDS011;60662;48.810;8.872;2023-06-26T08:30:16;5.57;;;4.03;;
3696;SDS011;60662;48.810;8.872;2023-06-26T08:31:18;6.50;;;3.70;;
3696;SDS011;60662;48.810;8.872;2023-06-26T08:32:20;10.50;;;5.00;;
3696;SDS011;60662;48.810;8.872;2023-06-26T08:35:06;6.20;;;3.77;;
3696;SDS011;60662;48.810;8.872;2023-06-26T08:36:08;6.47;;;4.43;;
3696;SDS011;60662;48.810;8.872;2023-06-26T08:37:09;6.47;;;4.30;;
3696;SDS011;60662;48.810;8.872;2023-06-26T08:38:11;4.73;;;3.70;;
3696;SDS011;60662;48.810;8.872;2023-06-26T08:39:12;4.90;;;3.93;;
3696;SDS011;60662;48.810;8.872;2023-06-26T08:40:16;14.20;;;5.03;;
3696;SDS011;60662;48.810;8.872;2023-06-26T08:41:20;7.63;;;3.87;;
3696;SDS011;60662;48.810;8.872;2023-06-26T08:42:21;8.60;;;4.40;;
3696;SDS011;60662;48.810;8.872;2023-06-26T08:43:23;6.97;;;4.20;;
3696;SDS011;60662;48.810;8.872;2023-06-26T08:44:24;5.00;;;3.60;;
3696;SDS011;60662;48.810;8.872;2023-06-26T08:45:26;5.07;;;3.47;;
3696;SDS011;60662;48.810;8.872;2023-06-26T08:46:29;5.73;;;4.00;;
3696;SDS011;60662;48.810;8.872;2023-06-26T08:47:32;6.10;;;3.80;;
3696;SDS011;60662;48.810;8.872;2023-06-26T08:48:36;5.40;;;4.17;;
3696;SDS011;60662;48.810;8.872;2023-06-26T08:50:46;6.40;;;4.73;;
3696;SDS011;60662;48.810;8.872;2023-06-26T08:52:06;5.10;;;4.13;;
3696;SDS011;60662;48.810;8.872;2023-06-26T08:54:22;6.90;;;4.67;;
3696;SDS011;60662;48.810;8.872;2023-06-26T08:55:30;5.53;;;3.90;;
3696;SDS011;60662;48.810;8.872;2023-06-26T08:56:40;7.70;;;5.20;;
3696;SDS011;60662;48.810;8.872;2023-06-26T08:57:43;5.33;;;4.33;;
3696;SDS011;60662;48.810;8.872;2023-06-26T08:58:48;6.73;;;5.20;;
3696;SDS011;60662;48.810;8.872;2023-06-26T08:59:50;6.50;;;4.63;;
3696;SDS011;60662;48.810;8.872;2023-06-26T09:00:53;6.57;;;4.30;;
3696;SDS011;60662;48.810;8.872;2023-06-26T09:01:57;5.07;;;4.40;;
3696;SDS011;60662;48.810;8.872;2023-06-26T09:02:59;6.83;;;4.63;;
3696;SDS011;60662;48.810;8.872;2023-06-26T09:04:02;6.50;;;4.27;;
3696;SDS011;60662;48.810;8.872;2023-06-26T09:05:04;8.57;;;4.83;;
3696;SDS011;60662;48.810;8.872;2023-06-26T09:06:06;8.37;;;4.67;;
3696;SDS011;60662;48.810;8.872;2023-06-26T09:07:07;7.80;;;4.30;;
3696;SDS011;60662;48.810;8.872;2023-06-26T09:08:09;5.73;;;4.10;;
3696;SDS011;60662;48.810;8.872;2023-06-26T09:09:11;8.30;;;5.17;;
3696;SDS011;60662;48.810;8.872;2023-06-26T09:10:12;6.73;;;4.50;;
3696;SDS011;60662;48.810;8.872;2023-06-26T09:11:14;7.87;;;4.33;;
3696;SDS011;60662;48.810;8.872;2023-06-26T09:12:15;4.83;;;4.33;;
3696;SDS011;60662;48.810;8.872;2023-06-26T09:13:18;7.50;;;4.70;;
3696;SDS011;60662;48.810;8.872;2023-06-26T09:14:30;6.40;;;4.40;;
3696;SDS011;60662;48.810;8.872;2023-06-26T09:15:38;6.37;;;4.00;;
3696;SDS011;60662;48.810;8.872;2023-06-26T09:16:43;5.97;;;4.10;;
3696;SDS011;60662;48.810;8.872;2023-06-26T09:17:45;7.13;;;4.00;;
3696;SDS011;60662;48.810;8.872;2023-06-26T09:18:48;7.30;;;4.80;;
3696;SDS011;60662;48.810;8.872;2023-06-26T09:19:51;6.10;;;4.07;;
3696;SDS011;60662;48.810;8.872;2023-06-26T09:20:52;7.03;;;4.67;;
3696;SDS011;60662;48.810;8.872;2023-06-26T09:21:56;6.67;;;4.17;;
3696;SDS011;60662;48.810;8.872;2023-06-26T09:22:58;9.93;;;4.30;;
3696;SDS011;60662;48.810;8.872;2023-06-26T09:24:01;6.10;;;4.73;;
3696;SDS011;60662;48.810;8.872;2023-06-26T09:25:03;7.63;;;4.63;;
3696;SDS011;60662;48.810;8.872;2023-06-26T09:26:06;5.47;;;4.17;;
3696;SDS011;60662;48.810;8.872;2023-06-26T09:27:07;5.43;;;4.20;;
3696;SDS011;60662;48.810;8.872;2023-06-26T09:28:09;7.03;;;4.40;;
3696;SDS011;60662;48.810;8.872;2023-06-26T09:29:11;4.83;;;4.33;;
3696;SDS011;60662;48.810;8.872;2023-06-26T09:30:18;5.57;;;4.40;;
3696;SDS011;60662;48.810;8.872;2023-06-26T09:31:20;15.83;;;5.33;;
3696;SDS011;60662;48.810;8.872;2023-06-26T09:32:40;6.27;;;4.83;;
3696;SDS011;60662;48.810;8.872;2023-06-26T09:33:42;7.77;;;4.13;;
3696;SDS011;60662;48.810;8.872;2023-06-26T09:34:44;5.57;;;4.40;;
3696;SDS011;60662;48.810;8.872;2023-06-26T09:35:46;5.27;;;4.50;;
3696;SDS011;60662;48.810;8.872;2023-06-26T09:36:52;7.80;;;4.73;;
3696;SDS011;60662;48.810;8.872;2023-06-26T09:37:55;6.73;;;4.37;;
3696;SDS011;60662;48.810;8.872;2023-06-26T09:38:56;7.87;;;5.10;;
3696;SDS011;60662;48.810;8.872;2023-06-26T09:39:58;6.20;;;4.60;;
3696;SDS011;60662;48.810;8.872;2023-06-26T09:40:59;6.60;;;4.87;;
3696;SDS011;60662;48.810;8.872;2023-06-26T09:42:01;6.37;;;4.10;;
3696;SDS011;60662;48.810;8.872;2023-06-26T09:43:07;6.53;;;4.30;;
3696;SDS011;60662;48.810;8.872;2023-06-26T09:44:13;6.10;;;4.90;;
3696;SDS011;60662;48.810;8.872;2023-06-26T09:45:18;5.90;;;4.90;;
3696;SDS011;60662;48.810;8.872;2023-06-26T09:46:26;9.37;;;4.93;;
3696;SDS011;60662;48.810;8.872;2023-06-26T09:47:32;7.73;;;4.80;;
3696;SDS011;60662;48.810;8.872;2023-06-26T09:48:35;7.00;;;5.33;;
3696;SDS011;60662;48.810;8.872;2023-06-26T09:49:40;5.93;;;5.13;;
3696;SDS011;60662;48.810;8.872;2023-06-26T09:50:45;6.73;;;5.03;;
3696;SDS011;60662;48.810;8.872;2023-06-26T09:52:07;9.90;;;5.20;;
3696;SDS011;60662;48.810;8.872;2023-06-26T09:53:09;6.50;;;5.30;;
3696;SDS011;60662;48.810;8.872;2023-06-26T09:54:19;9.27;;;4.87;;
3696;SDS011;60662;48.810;8.872;2023-06-26T09:55:23;5.73;;;5.13;;
3696;SDS011;60662;48.810;8.872;2023-06-26T09:56:25;8.07;;;4.40;;
3696;SDS011;60662;48.810;8.872;2023-06-26T09:57:28;11.60;;;5.07;;
3696;SDS011;60662;48.810;8.872;2023-06-26T09:58:30;9.20;;;5.57;;
3696;SDS011;60662;48.810;8.872;2023-06-26T09:59:32;12.43;;;5.63;;
3696;SDS011;60662;48.810;8.872;2023-06-26T10:00:34;10.90;;;5.37;;
3696;SDS011;60662;48.810;8.872;2023-06-26T10:01:39;7.03;;;5.07;;
3696;SDS011;60662;48.810;8.872;2023-06-26T10:02:42;8.07;;;5.87;;
3696;SDS011;60662;48.810;8.872;2023-06-26T10:03:43;6.10;;;4.93;;
3696;SDS011;60662;48.810;8.872;2023-06-26T10:04:45;8.20;;;5.27;;
3696;SDS011;60662;48.810;8.872;2023-06-26T10:05:47;6.33;;;5.03;;
3696;SDS011;60662;48.810;8.872;2023-06-26T10:06:49;6.40;;;4.77;;
3696;SDS011;60662;48.810;8.872;2023-06-26T10:07:53;7.10;;;5.80;;
3696;SDS011;60662;48.810;8.872;2023-06-26T10:08:56;7.77;;;5.47;;
3696;SDS011;60662;48.810;8.872;2023-06-26T10:10:00;7.90;;;5.57;;
3696;SDS011;60662;48.810;8.872;2023-06-26T10:11:03;8.43;;;5.50;;
3696;SDS011;60662;48.810;8.872;2023-06-26T10:12:12;9.93;;;5.20;;
3696;SDS011;60662;48.810;8.872;2023-06-26T10:13:21;8.90;;;4.80;;
3696;SDS011;60662;48.810;8.872;2023-06-26T10:14:27;7.37;;;5.47;;
3696;SDS011;60662;48.810;8.872;2023-06-26T10:15:31;6.97;;;5.30;;
3696;SDS011;60662;48.810;8.872;2023-06-26T10:16:33;15.90;;;5.93;;
3696;SDS011;60662;48.810;8.872;2023-06-26T10:17:38;8.73;;;5.07;;
3696;SDS011;60662;48.810;8.872;2023-06-26T10:18:42;11.93;;;7.37;;
3696;SDS011;60662;48.810;8.872;2023-06-26T10:19:45;9.03;;;6.50;;
3696;SDS011;60662;48.810;8.872;2023-06-26T10:20:48;10.50;;;6.20;;
3696;SDS011;60662;48.810;8.872;2023-06-26T10:21:52;9.10;;;5.67;;
3696;SDS011;60662;48.810;8.872;2023-06-26T10:22:55;9.13;;;5.60;;
3696;SDS011;60662;48.810;8.872;2023-06-26T10:24:02;8.13;;;5.60;;
3696;SDS011;60662;48.810;8.872;2023-06-26T10:25:05;10.57;;;6.10;;
3696;SDS011;60662;48.810;8.872;2023-06-26T10:26:08;11.13;;;6.23;;
3696;SDS011;60662;48.810;8.872;2023-06-26T10:27:19;7.93;;;6.27;;
3696;SDS011;60662;48.810;8.872;2023-06-26T10:28:22;9.47;;;5.50;;
3696;SDS011;60662;48.810;8.872;2023-06-26T10:29:24;8.73;;;5.60;;
3696;SDS011;60662;48.810;8.872;2023-06-26T10:30:29;8.17;;;5.93;;
3696;SDS011;60662;48.810;8.872;2023-06-26T10:31:34;14.03;;;7.87;;
3696;SDS011;60662;48.810;8.872;2023-06-26T10:32:37;9.20;;;6.00;;
3696;SDS011;60662;48.810;8.872;2023-06-26T10:33:39;11.27;;;6.80;;
3696;SDS011;60662;48.810;8.872;2023-06-26T10:34:40;15.00;;;10.00;;
3696;SDS011;60662;48.810;8.872;2023-06-26T10:35:43;10.43;;;6.00;;
3696;SDS011;60662;48.810;8.872;2023-06-26T10:36:55;12.00;;;6.37;;
3696;SDS011;60662;48.810;8.872;2023-06-26T10:38:04;13.23;;;6.40;;
3696;SDS011;60662;48.810;8.872;2023-06-26T10:39:06;11.07;;;6.35;;
3696;SDS011;60662;48.810;8.872;2023-06-26T10:40:08;11.07;;;5.88;;
3696;SDS011;60662;48.810;8.872;2023-06-26T10:41:10;11.37;;;6.30;;
3696;SDS011;60662;48.810;8.872;2023-06-26T10:42:14;10.07;;;7.07;;
3696;SDS011;60662;48.810;8.872;2023-06-26T10:43:16;10.65;;;5.60;;
3696;SDS011;60662;48.810;8.872;2023-06-26T10:44:19;12.82;;;5.80;;
3696;SDS011;60662;48.810;8.872;2023-06-26T10:45:22;15.85;;;6.45;;
3696;SDS011;60662;48.810;8.872;2023-06-26T10:46:29;10.55;;;6.63;;
3696;SDS011;60662;48.810;8.872;2023-06-26T10:47:34;10.40;;;5.90;;
3696;SDS011;60662;48.810;8.872;2023-06-26T10:50:20;11.95;;;6.50;;
3696;SDS011;60662;48.810;8.872;2023-06-26T10:51:37;9.02;;;6.20;;
3696;SDS011;60662;48.810;8.872;2023-06-26T10:52:39;8.18;;;6.20;;
3696;SDS011;60662;48.810;8.872;2023-06-26T10:53:40;7.88;;;5.95;;
3696;SDS011;60662;48.810;8.872;2023-06-26T10:54:44;10.25;;;6.80;;
3696;SDS011;60662;48.810;8.872;2023-06-26T10:56:54;8.27;;;5.97;;
3696;SDS011;60662;48.810;8.872;2023-06-26T10:57:57;8.40;;;6.10;;
3696;SDS011;60662;48.810;8.872;2023-06-26T10:59:10;8.23;;;5.32;;
3696;SDS011;60662;48.810;8.872;2023-06-26T11:00:15;9.45;;;6.15;;
3696;SDS011;60662;48.810;8.872;2023-06-26T11:01:18;8.75;;;5.90;;
3696;SDS011;60662;48.810;8.872;2023-06-26T11:02:25;11.88;;;6.57;;
3696;SDS011;60662;48.810;8.872;2023-06-26T11:03:29;15.52;;;6.82;;
3696;SDS011;60662;48.810;8.872;2023-06-26T11:04:44;7.97;;;6.07;;
3696;SDS011;60662;48.810;8.872;2023-06-26T11:06:10;12.52;;;5.70;;
3696;SDS011;60662;48.810;8.872;2023-06-26T11:07:24;16.42;;;5.65;;
3696;SDS011;60662;48.810;8.872;2023-06-26T11:08:49;9.93;;;6.43;;
3696;SDS011;60662;48.810;8.872;2023-06-26T11:09:59;9.65;;;5.90;;
3696;SDS011;60662;48.810;8.872;2023-06-26T11:11:02;15.07;;;6.90;;
3696;SDS011;60662;48.810;8.872;2023-06-26T11:12:03;12.50;;;6.32;;
3696;SDS011;60662;48.810;8.872;2023-06-26T11:13:08;10.63;;;6.25;;
3696;SDS011;60662;48.810;8.872;2023-06-26T11:14:11;11.13;;;5.57;;
3696;SDS011;60662;48.810;8.872;2023-06-26T11:15:14;11.75;;;5.75;;
3696;SDS011;60662;48.810;8.872;2023-06-26T11:16:17;9.65;;;4.97;;
3696;SDS011;60662;48.810;8.872;2023-06-26T11:17:18;9.07;;;4.95;;
3696;SDS011;60662;48.810;8.872;2023-06-26T11:18:20;7.95;;;6.05;;
3696;SDS011;60662;48.810;8.872;2023-06-26T11:19:22;8.30;;;6.57;;
3696;SDS011;60662;48.810;8.872;2023-06-26T11:20:23;9.23;;;6.37;;
3696;SDS011;60662;48.810;8.872;2023-06-26T11:21:25;8.80;;;5.20;;
3696;SDS011;60662;48.810;8.872;2023-06-26T11:22:26;9.83;;;6.07;;
3696;SDS011;60662;48.810;8.872;2023-06-26T11:23:28;8.13;;;5.77;;
3696;SDS011;60662;48.810;8.872;2023-06-26T11:24:30;9.33;;;5.17;;
3696;SDS011;60662;48.810;8.872;2023-06-26T11:25:36;12.93;;;5.43;;
3696;SDS011;60662;48.810;8.872;2023-06-26T11:26:38;9.20;;;5.70;;
3696;SDS011;60662;48.810;8.872;2023-06-26T11:27:43;12.90;;;5.57;;
3696;SDS011;60662;48.810;8.872;2023-06-26T11:28:55;7.53;;;5.00;;
3696;SDS011;60662;48.810;8.872;2023-06-26T11:29:57;12.27;;;5.77;;
3696;SDS011;60662;48.810;8.872;2023-06-26T11:30:59;7.93;;;5.20;;
3696;SDS011;60662;48.810;8.872;2023-06-26T11:32:01;6.90;;;5.37;;
3696;SDS011;60662;48.810;8.872;2023-06-26T11:33:08;7.43;;;5.40;;
3696;SDS011;60662;48.810;8.872;2023-06-26T11:34:12;9.63;;;5.40;;
3696;SDS011;60662;48.810;8.872;2023-06-26T11:35:23;8.53;;;5.50;;
3696;SDS011;60662;48.810;8.872;2023-06-26T11:36:31;10.30;;;5.20;;
3696;SDS011;60662;48.810;8.872;2023-06-26T11:37:33;6.70;;;5.30;;
3696;SDS011;60662;48.810;8.872;2023-06-26T11:38:38;11.40;;;5.57;;
3696;SDS011;60662;48.810;8.872;2023-06-26T11:39:39;7.93;;;5.30;;
3696;SDS011;60662;48.810;8.872;2023-06-26T11:40:41;9.10;;;5.37;;
3696;SDS011;60662;48.810;8.872;2023-06-26T11:41:44;9.97;;;6.30;;
3696;SDS011;60662;48.810;8.872;2023-06-26T11:42:46;9.67;;;6.27;;
3696;SDS011;60662;48.810;8.872;2023-06-26T11:43:48;9.13;;;6.20;;
3696;SDS011;60662;48.810;8.872;2023-06-26T11:44:50;8.57;;;5.47;;
3696;SDS011;60662;48.810;8.872;2023-06-26T11:45:52;10.50;;;5.90;;
3696;SDS011;60662;48.810;8.872;2023-06-26T11:46:54;11.50;;;5.82;;
3696;SDS011;60662;48.810;8.872;2023-06-26T11:47:56;9.38;;;5.57;;
3696;SDS011;60662;48.810;8.872;2023-06-26T11:48:58;8.40;;;6.03;;
3696;SDS011;60662;48.810;8.872;2023-06-26T11:50:01;9.50;;;4.63;;
3696;SDS011;60662;48.810;8.872;2023-06-26T11:51:05;9.17;;;5.03;;
3696;SDS011;60662;48.810;8.872;2023-06-26T11:52:07;10.20;;;5.67;;
3696;SDS011;60662;48.810;8.872;2023-06-26T11:53:08;13.37;;;5.83;;
3696;SDS011;60662;48.810;8.872;2023-06-26T11:54:10;7.93;;;6.10;;
3696;SDS011;60662;48.810;8.872;2023-06-26T11:55:14;7.97;;;5.60;;
3696;SDS011;60662;48.810;8.872;2023-06-26T11:56:16;8.47;;;5.60;;
3696;SDS011;60662;48.810;8.872;2023-06-26T11:57:18;10.73;;;5.70;;
3696;SDS011;60662;48.810;8.872;2023-06-26T11:58:20;8.20;;;6.17;;
3696;SDS011;60662;48.810;8.872;2023-06-26T11:59:21;10.83;;;5.90;;
3696;SDS011;60662;48.810;8.872;2023-06-26T12:00:24;11.27;;;5.10;;
3696;SDS011;60662;48.810;8.872;2023-06-26T12:01:25;6.57;;;4.80;;
3696;SDS011;60662;48.810;8.872;2023-06-26T12:02:27;11.03;;;5.90;;
3696;SDS011;60662;48.810;8.872;2023-06-26T12:03:31;16.30;;;6.60;;
3696;SDS011;60662;48.810;8.872;2023-06-26T12:04:34;6.57;;;5.47;;
3696;SDS011;60662;48.810;8.872;2023-06-26T12:05:39;7.93;;;6.00;;
3696;SDS011;60662;48.810;8.872;2023-06-26T12:06:42;7.47;;;5.47;;
3696;SDS011;60662;48.810;8.872;2023-06-26T12:07:47;9.63;;;5.97;;
3696;SDS011;60662;48.810;8.872;2023-06-26T12:08:50;12.40;;;6.47;;
3696;SDS011;60662;48.810;8.872;2023-06-26T12:09:52;8.63;;;5.77;;
3696;SDS011;60662;48.810;8.872;2023-06-26T12:10:54;9.47;;;5.23;;
3696;SDS011;60662;48.810;8.872;2023-06-26T12:11:57;8.57;;;6.23;;
3696;SDS011;60662;48.810;8.872;2023-06-26T12:12:59;9.43;;;6.33;;
3696;SDS011;60662;48.810;8.872;2023-06-26T12:14:02;12.87;;;9.93;;
3696;SDS011;60662;48.810;8.872;2023-06-26T12:15:05;13.10;;;6.20;;
3696;SDS011;60662;48.810;8.872;2023-06-26T12:16:08;11.02;;;5.43;;
3696;SDS011;60662;48.810;8.872;2023-06-26T12:17:10;7.20;;;5.40;;
3696;SDS011;60662;48.810;8.872;2023-06-26T12:18:14;10.70;;;4.97;;
3696;SDS011;60662;48.810;8.872;2023-06-26T12:19:16;7.27;;;5.10;;
3696;SDS011;60662;48.810;8.872;2023-06-26T12:20:21;13.55;;;5.60;;
3696;SDS011;60662;48.810;8.872;2023-06-26T12:21:33;6.93;;;5.00;;
3696;SDS011;60662;48.810;8.872;2023-06-26T12:22:46;11.45;;;6.30;;
3696;SDS011;60662;48.810;8.872;2023-06-26T12:23:48;8.48;;;5.45;;
3696;SDS011;60662;48.810;8.872;2023-06-26T12:24:50;9.52;;;6.40;;
3696;SDS011;60662;48.810;8.872;2023-06-26T12:25:51;13.95;;;6.25;;
3696;SDS011;60662;48.810;8.872;2023-06-26T12:26:54;9.20;;;5.70;;
3696;SDS011;60662;48.810;8.872;2023-06-26T12:27:58;9.70;;;5.70;;
3696;SDS011;60662;48.810;8.872;2023-06-26T12:29:03;9.02;;;6.20;;
3696;SDS011;60662;48.810;8.872;2023-06-26T12:30:08;10.00;;;5.63;;
3696;SDS011;60662;48.810;8.872;2023-06-26T12:31:16;8.82;;;5.35;;
3696;SDS011;60662;48.810;8.872;2023-06-26T12:32:18;9.07;;;5.32;;
3696;SDS011;60662;48.810;8.872;2023-06-26T12:33:20;10.93;;;5.57;;
3696;SDS011;60662;48.810;8.872;2023-06-26T12:34:26;6.97;;;5.28;;
3696;SDS011;60662;48.810;8.872;2023-06-26T12:35:32;9.27;;;5.50;;
3696;SDS011;60662;48.810;8.872;2023-06-26T12:36:41;10.55;;;5.70;;
3696;SDS011;60662;48.810;8.872;2023-06-26T12:37:43;11.38;;;6.22;;
3696;SDS011;60662;48.810;8.872;2023-06-26T12:38:48;9.65;;;5.90;;
3696;SDS011;60662;48.810;8.872;2023-06-26T12:39:51;8.23;;;4.68;;
3696;SDS011;60662;48.810;8.872;2023-06-26T12:40:56;8.55;;;5.00;;
3696;SDS011;60662;48.810;8.872;2023-06-26T12:42:00;7.87;;;5.37;;
3696;SDS011;60662;48.810;8.872;2023-06-26T12:43:06;12.02;;;4.82;;
3696;SDS011;60662;48.810;8.872;2023-06-26T12:44:23;7.10;;;4.80;;
3696;SDS011;60662;48.810;8.872;2023-06-26T12:45:27;15.10;;;5.63;;
3696;SDS011;60662;48.810;8.872;2023-06-26T12:46:33;14.82;;;6.03;;
3696;SDS011;60662;48.810;8.872;2023-06-26T12:47:38;12.15;;;4.88;;
3696;SDS011;60662;48.810;8.872;2023-06-26T12:48:42;9.02;;;5.15;;
3696;SDS011;60662;48.810;8.872;2023-06-26T12:49:49;9.93;;;5.60;;
3696;SDS011;60662;48.810;8.872;2023-06-26T12:50:52;14.38;;;5.72;;
3696;SDS011;60662;48.810;8.872;2023-06-26T12:51:54;7.03;;;4.53;;
3696;SDS011;60662;48.810;8.872;2023-06-26T12:52:56;7.03;;;5.20;;
3696;SDS011;60662;48.810;8.872;2023-06-26T12:53:57;8.70;;;5.63;;
3696;SDS011;60662;48.810;8.872;2023-06-26T12:54:59;9.60;;;4.38;;
3696;SDS011;60662;48.810;8.872;2023-06-26T12:56:00;8.13;;;4.90;;
3696;SDS011;60662;48.810;8.872;2023-06-26T12:57:02;8.43;;;5.00;;
3696;SDS011;60662;48.810;8.872;2023-06-26T12:58:06;6.60;;;4.63;;
3696;SDS011;60662;48.810;8.872;2023-06-26T12:59:09;8.60;;;5.30;;
3696;SDS011;60662;48.810;8.872;2023-06-26T13:00:11;7.70;;;4.97;;
3696;SDS011;60662;48.810;8.872;2023-06-26T13:01:13;10.80;;;4.67;;
3696;SDS011;60662;48.810;8.872;2023-06-26T13:02:15;14.23;;;5.47;;
3696;SDS011;60662;48.810;8.872;2023-06-26T13:03:17;6.87;;;5.73;;
3696;SDS011;60662;48.810;8.872;2023-06-26T13:04:18;14.13;;;10.23;;
3696;SDS011;60662;48.810;8.872;2023-06-26T13:05:20;9.43;;;5.77;;
3696;SDS011;60662;48.810;8.872;2023-06-26T13:06:21;7.87;;;5.40;;
3696;SDS011;60662;48.810;8.872;2023-06-26T13:07:23;12.00;;;4.80;;
3696;SDS011;60662;48.810;8.872;2023-06-26T13:08:27;9.40;;;4.90;;
3696;SDS011;60662;48.810;8.872;2023-06-26T13:09:31;6.97;;;4.32;;
3696;SDS011;60662;48.810;8.872;2023-06-26T13:10:34;7.90;;;4.90;;
3696;SDS011;60662;48.810;8.872;2023-06-26T13:11:37;13.73;;;4.43;;
3696;SDS011;60662;48.810;8.872;2023-06-26T13:12:39;7.63;;;4.40;;
3696;SDS011;60662;48.810;8.872;2023-06-26T13:13:40;9.47;;;5.00;;
3696;SDS011;60662;48.810;8.872;2023-06-26T13:14:41;9.60;;;4.80;;
3696;SDS011;60662;48.810;8.872;2023-06-26T13:15:43;9.75;;;4.53;;
3696;SDS011;60662;48.810;8.872;2023-06-26T13:16:44;10.52;;;4.72;;
3696;SDS011;60662;48.810;8.872;2023-06-26T13:17:46;5.63;;;3.87;;
3696;SDS011;60662;48.810;8.872;2023-06-26T13:18:47;6.93;;;4.93;;
3696;SDS011;60662;48.810;8.872;2023-06-26T13:19:49;7.65;;;4.72;;
3696;SDS011;60662;48.810;8.872;2023-06-26T13:20:51;8.73;;;4.33;;
3696;SDS011;60662;48.810;8.872;2023-06-26T13:21:52;6.80;;;5.03;;
3696;SDS011;60662;48.810;8.872;2023-06-26T13:22:54;6.10;;;4.20;;
3696;SDS011;60662;48.810;8.872;2023-06-26T13:23:56;7.07;;;4.80;;
3696;SDS011;60662;48.810;8.872;2023-06-26T13:24:59;7.97;;;4.90;;
3696;SDS011;60662;48.810;8.872;2023-06-26T13:26:00;6.30;;;4.40;;
3696;SDS011;60662;48.810;8.872;2023-06-26T13:27:02;5.90;;;4.30;;
3696;SDS011;60662;48.810;8.872;2023-06-26T13:28:03;6.28;;;3.67;;
3696;SDS011;60662;48.810;8.872;2023-06-26T13:29:06;7.05;;;4.18;;
3696;SDS011;60662;48.810;8.872;2023-06-26T13:30:08;6.47;;;4.10;;
3696;SDS011;60662;48.810;8.872;2023-06-26T13:31:09;4.03;;;3.00;;
3696;SDS011;60662;48.810;8.872;2023-06-26T13:32:11;5.40;;;3.90;;
3696;SDS011;60662;48.810;8.872;2023-06-26T13:33:12;7.40;;;4.10;;
3696;SDS011;60662;48.810;8.872;2023-06-26T13:34:20;6.30;;;4.40;;
3696;SDS011;60662;48.810;8.872;2023-06-26T13:35:24;5.70;;;3.63;;
3696;SDS011;60662;48.810;8.872;2023-06-26T13:36:25;9.35;;;4.90;;
3696;SDS011;60662;48.810;8.872;2023-06-26T13:37:27;6.77;;;4.27;;
3696;SDS011;60662;48.810;8.872;2023-06-26T13:38:29;5.82;;;3.50;;
3696;SDS011;60662;48.810;8.872;2023-06-26T13:39:30;12.48;;;4.78;;
3696;SDS011;60662;48.810;8.872;2023-06-26T13:40:32;5.77;;;3.20;;
3696;SDS011;60662;48.810;8.872;2023-06-26T13:41:33;9.13;;;4.20;;
3696;SDS011;60662;48.810;8.872;2023-06-26T13:42:35;5.20;;;3.37;;
3696;SDS011;60662;48.810;8.872;2023-06-26T13:43:38;10.10;;;4.10;;
3696;SDS011;60662;48.810;8.872;2023-06-26T13:44:39;6.43;;;3.30;;
3696;SDS011;60662;48.810;8.872;2023-06-26T13:46:01;4.70;;;3.43;;
3696;SDS011;60662;48.810;8.872;2023-06-26T13:47:04;4.03;;;3.10;;
3696;SDS011;60662;48.810;8.872;2023-06-26T13:48:06;7.70;;;3.27;;
3696;SDS011;60662;48.810;8.872;2023-06-26T13:49:08;6.30;;;3.20;;
3696;SDS011;60662;48.810;8.872;2023-06-26T13:50:10;8.25;;;4.70;;
3696;SDS011;60662;48.810;8.872;2023-06-26T13:51:11;6.57;;;3.40;;
3696;SDS011;60662;48.810;8.872;2023-06-26T13:52:13;6.68;;;3.08;;
3696;SDS011;60662;48.810;8.872;2023-06-26T13:53:14;26.95;;;4.50;;
3696;SDS011;60662;48.810;8.872;2023-06-26T13:54:16;12.07;;;3.80;;
3696;SDS011;60662;48.810;8.872;2023-06-26T13:55:19;6.85;;;3.20;;
3696;SDS011;60662;48.810;8.872;2023-06-26T13:56:23;7.22;;;3.63;;
3696;SDS011;60662;48.810;8.872;2023-06-26T13:57:25;6.50;;;3.23;;
3696;SDS011;60662;48.810;8.872;2023-06-26T13:58:29;14.30;;;3.50;;
3696;SDS011;60662;48.810;8.872;2023-06-26T13:59:33;6.18;;;3.67;;
3696;SDS011;60662;48.810;8.872;2023-06-26T14:00:37;6.63;;;3.60;;
3696;SDS011;60662;48.810;8.872;2023-06-26T14:01:39;5.32;;;2.80;;
3696;SDS011;60662;48.810;8.872;2023-06-26T14:02:43;4.07;;;2.80;;
3696;SDS011;60662;48.810;8.872;2023-06-26T14:03:45;8.75;;;3.45;;
3696;SDS011;60662;48.810;8.872;2023-06-26T14:04:47;5.03;;;3.28;;
3696;SDS011;60662;48.810;8.872;2023-06-26T14:05:48;9.18;;;3.35;;
3696;SDS011;60662;48.810;8.872;2023-06-26T14:06:50;10.70;;;3.95;;
3696;SDS011;60662;48.810;8.872;2023-06-26T14:07:52;6.63;;;2.67;;
3696;SDS011;60662;48.810;8.872;2023-06-26T14:08:54;5.20;;;2.70;;
3696;SDS011;60662;48.810;8.872;2023-06-26T14:09:56;5.30;;;3.40;;
3696;SDS011;60662;48.810;8.872;2023-06-26T14:10:58;4.67;;;3.40;;
3696;SDS011;60662;48.810;8.872;2023-06-26T14:11:59;5.03;;;3.13;;
3696;SDS011;60662;48.810;8.872;2023-06-26T14:13:01;5.90;;;3.53;;
3696;SDS011;60662;48.810;8.872;2023-06-26T14:14:04;5.23;;;3.40;;
3696;SDS011;60662;48.810;8.872;2023-06-26T14:15:06;7.80;;;4.57;;
3696;SDS011;60662;48.810;8.872;2023-06-26T14:16:08;8.17;;;3.20;;
3696;SDS011;60662;48.810;8.872;2023-06-26T14:17:09;5.87;;;3.20;;
3696;SDS011;60662;48.810;8.872;2023-06-26T14:18:12;9.52;;;3.70;;
3696;SDS011;60662;48.810;8.872;2023-06-26T14:19:13;6.93;;;3.90;;
3696;SDS011;60662;48.810;8.872;2023-06-26T14:20:16;5.60;;;3.07;;
3696;SDS011;60662;48.810;8.872;2023-06-26T14:21:17;7.63;;;3.50;;
3696;SDS011;60662;48.810;8.872;2023-06-26T14:22:19;8.47;;;3.00;;
3696;SDS011;60662;48.810;8.872;2023-06-26T14:23:20;9.93;;;3.50;;
3696;SDS011;60662;48.810;8.872;2023-06-26T14:24:22;8.37;;;3.60;;
3696;SDS011;60662;48.810;8.872;2023-06-26T14:25:23;9.40;;;3.50;;
3696;SDS011;60662;48.810;8.872;2023-06-26T14:26:25;5.77;;;2.90;;
3696;SDS011;60662;48.810;8.872;2023-06-26T14:27:26;7.00;;;3.30;;
3696;SDS011;60662;48.810;8.872;2023-06-26T14:28:28;5.70;;;3.30;;
3696;SDS011;60662;48.810;8.872;2023-06-26T14:29:29;7.93;;;2.70;;
3696;SDS011;60662;48.810;8.872;2023-06-26T14:30:31;6.70;;;3.20;;
3696;SDS011;60662;48.810;8.872;2023-06-26T14:31:33;13.50;;;3.03;;
3696;SDS011;60662;48.810;8.872;2023-06-26T14:32:34;26.15;;;3.88;;
3696;SDS011;60662;48.810;8.872;2023-06-26T14:33:36;10.50;;;2.83;;
3696;SDS011;60662;48.810;8.872;2023-06-26T14:34:39;13.15;;;3.78;;
3696;SDS011;60662;48.810;8.872;2023-06-26T14:35:41;15.50;;;3.67;;
3696;SDS011;60662;48.810;8.872;2023-06-26T14:36:42;5.00;;;3.50;;
3696;SDS011;60662;48.810;8.872;2023-06-26T14:37:44;7.80;;;4.00;;
3696;SDS011;60662;48.810;8.872;2023-06-26T14:38:45;5.87;;;3.40;;
3696;SDS011;60662;48.810;8.872;2023-06-26T14:39:47;12.40;;;3.40;;
3696;SDS011;60662;48.810;8.872;2023-06-26T14:40:49;7.77;;;3.50;;
3696;SDS011;60662;48.810;8.872;2023-06-26T14:41:51;11.45;;;3.28;;
3696;SDS011;60662;48.810;8.872;2023-06-26T14:42:53;12.02;;;4.00;;
3696;SDS011;60662;48.810;8.872;2023-06-26T14:43:55;9.82;;;4.70;;
3696;SDS011;60662;48.810;8.872;2023-06-26T14:44:57;8.20;;;3.42;;
3696;SDS011;60662;48.810;8.872;2023-06-26T14:45:59;10.00;;;4.45;;
3696;SDS011;60662;48.810;8.872;2023-06-26T14:47:01;7.95;;;4.53;;
3696;SDS011;60662;48.810;8.872;2023-06-26T14:48:03;8.32;;;3.92;;